Time;durP1;ratioP1;P1;durP2;ratioP2;P2;SDS_P1;SDS_P2;PMS_P1;PMS_P2;Temp;Humidity;BMP_temperature;BMP_pressure;BME280_temperature;BME280_humidity;BME280_pressure;Samples;Min_cycle;Max_cycle;Signal;HPM_P1;HPM_P2
2023/05/02 00:01:36;;;;;;;12.50;8.97;;;9.80;99.90;;;;;;4993009;28;20172;-67
2023/05/02 00:04:02;;;;;;;8.97;8.13;;;9.80;99.90;;;;;;4992033;28;20736;-67
2023/05/02 00:06:30;;;;;;;8.20;7.40;;;9.80;99.90;;;;;;4992797;28;20522;-67
2023/05/02 00:08:55;;;;;;;11.07;7.83;;;9.80;99.90;;;;;;4992623;28;20179;-67
2023/05/02 00:11:23;;;;;;;8.30;7.60;;;9.80;99.90;;;;;;4993060;28;20481;-67
2023/05/02 00:13:49;;;;;;;8.57;7.67;;;9.70;99.90;;;;;;4992834;28;20174;-67
2023/05/02 00:16:14;;;;;;;8.50;7.73;;;9.70;99.90;;;;;;4992555;28;20462;-67
2023/05/02 00:18:40;;;;;;;8.73;7.80;;;9.60;99.90;;;;;;4992558;28;20172;-67
2023/05/02 00:21:06;;;;;;;8.37;7.67;;;9.60;99.90;;;;;;4992656;28;20180;-67
2023/05/02 00:23:32;;;;;;;10.97;9.07;;;9.60;99.90;;;;;;4992577;28;20199;-67
2023/05/02 00:25:57;;;;;;;9.17;8.27;;;9.60;99.90;;;;;;4992567;28;20445;-67
2023/05/02 00:28:23;;;;;;;8.83;8.03;;;9.60;99.90;;;;;;4992355;28;20175;-67
2023/05/02 00:30:48;;;;;;;8.63;7.83;;;9.60;99.90;;;;;;4992713;28;20174;-67
2023/05/02 00:33:14;;;;;;;9.13;8.30;;;9.60;99.90;;;;;;4992598;28;20637;-67
2023/05/02 00:35:40;;;;;;;12.60;9.90;;;9.50;99.90;;;;;;4992496;28;20197;-68
2023/05/02 00:38:06;;;;;;;9.57;8.67;;;9.60;99.90;;;;;;4992473;28;20783;-67
2023/05/02 00:40:45;;;;;;;9.43;8.50;;;9.50;99.90;;;;;;4992286;28;20175;-67
2023/05/02 00:43:10;;;;;;;8.97;8.07;;;9.50;99.90;;;;;;4992499;28;20423;-67
2023/05/02 00:45:39;;;;;;;9.30;8.50;;;9.50;99.90;;;;;;4992421;28;20541;-67
2023/05/02 00:48:06;;;;;;;10.03;8.37;;;9.50;99.90;;;;;;4992436;28;20168;-67
2023/05/02 00:50:34;;;;;;;9.50;8.70;;;9.50;99.90;;;;;;4992159;28;20920;-67
2023/05/02 00:53:01;;;;;;;9.17;8.37;;;9.50;99.90;;;;;;4992347;28;20418;-67
2023/05/02 00:55:26;;;;;;;9.60;8.80;;;9.50;99.90;;;;;;4992333;28;20577;-67
2023/05/02 00:57:52;;;;;;;8.40;7.70;;;9.40;99.90;;;;;;4992362;28;20461;-67
2023/05/02 01:00:18;;;;;;;9.87;8.97;;;9.40;99.90;;;;;;4992086;28;20176;-67
2023/05/02 01:02:57;;;;;;;16.53;9.03;;;9.40;99.90;;;;;;4992448;28;20202;-67
2023/05/02 01:05:45;;;;;;;9.30;8.50;;;9.40;99.90;;;;;;4992012;28;20207;-67
2023/05/02 01:08:19;;;;;;;10.23;9.17;;;9.30;99.90;;;;;;4992275;28;20903;-67
2023/05/02 01:11:11;;;;;;;9.13;8.23;;;9.30;99.90;;;;;;4992425;28;20907;-67
2023/05/02 01:13:39;;;;;;;10.90;9.17;;;9.30;99.90;;;;;;4992220;28;20422;-67
2023/05/02 01:16:06;;;;;;;10.23;9.00;;;9.30;99.90;;;;;;4994713;28;20458;-67
2023/05/02 01:18:37;;;;;;;8.90;8.10;;;9.30;99.90;;;;;;4995624;28;20442;-67
2023/05/02 01:21:06;;;;;;;11.17;10.03;;;9.30;99.90;;;;;;4995878;28;20790;-67
2023/05/02 01:23:43;;;;;;;9.50;8.70;;;9.30;99.90;;;;;;4995830;28;20450;-67
2023/05/02 01:26:14;;;;;;;9.63;8.70;;;9.30;99.90;;;;;;4995690;28;20529;-67
2023/05/02 01:29:01;;;;;;;10.00;9.00;;;9.30;99.90;;;;;;4994177;28;20453;-67
2023/05/02 01:31:40;;;;;;;8.43;7.57;;;9.30;99.90;;;;;;4995691;28;20935;-67
2023/05/02 01:34:09;;;;;;;8.97;8.03;;;9.40;99.90;;;;;;4995749;28;20431;-67
2023/05/02 01:36:37;;;;;;;10.23;9.23;;;9.40;99.90;;;;;;4995553;28;20443;-67
2023/05/02 01:39:04;;;;;;;10.50;9.60;;;9.40;99.90;;;;;;4995327;28;20430;-67
2023/05/02 01:41:32;;;;;;;9.40;8.60;;;9.40;99.90;;;;;;4995582;28;20423;-67
2023/05/02 01:43:58;;;;;;;9.60;8.60;;;9.50;99.90;;;;;;4995451;28;20491;-67
2023/05/02 01:46:32;;;;;;;10.43;7.87;;;9.40;99.90;;;;;;4995345;28;20439;-67
2023/05/02 01:49:00;;;;;;;9.50;8.70;;;9.40;99.90;;;;;;4994985;28;20999;-67
2023/05/02 01:51:42;;;;;;;9.07;8.27;;;9.30;99.90;;;;;;4995339;28;20760;-67
2023/05/02 01:54:11;;;;;;;9.57;8.60;;;9.20;99.90;;;;;;4994087;28;20450;-67
2023/05/02 01:56:38;;;;;;;11.17;8.57;;;9.20;99.90;;;;;;4995190;28;20493;-67
2023/05/02 01:59:07;;;;;;;9.90;8.90;;;9.10;99.90;;;;;;4994965;28;20430;-67
2023/05/02 02:01:35;;;;;;;9.30;8.40;;;9.10;99.90;;;;;;4995113;28;20423;-67
2023/05/02 02:04:03;;;;;;;9.67;8.77;;;9.10;99.90;;;;;;4995108;28;20458;-67
2023/05/02 02:06:28;;;;;;;8.87;8.13;;;9.10;99.90;;;;;;4995050;28;20485;-67
2023/05/02 02:08:54;;;;;;;10.40;8.80;;;9.10;99.90;;;;;;4994727;28;20423;-67
2023/05/02 02:11:29;;;;;;;9.37;8.47;;;9.10;99.90;;;;;;4995030;28;20176;-67
2023/05/02 02:14:05;;;;;;;10.50;9.43;;;9.00;99.90;;;;;;4994937;28;20171;-67
2023/05/02 02:16:33;;;;;;;10.30;9.40;;;9.00;99.90;;;;;;4994727;28;20466;-67
2023/05/02 02:19:05;;;;;;;10.47;9.57;;;9.00;99.90;;;;;;4994529;28;20569;-67
2023/05/02 02:21:33;;;;;;;9.10;8.30;;;8.90;99.90;;;;;;4994738;28;20427;-67
2023/05/02 02:24:02;;;;;;;10.70;9.60;;;8.90;99.90;;;;;;4994691;28;21242;-67
2023/05/02 02:26:27;;;;;;;14.30;9.33;;;8.90;99.90;;;;;;4993521;28;20446;-67
2023/05/02 02:28:55;;;;;;;10.10;9.20;;;8.80;99.90;;;;;;4994409;28;20418;-67
2023/05/02 02:31:20;;;;;;;12.47;10.60;;;8.80;99.90;;;;;;4994573;28;20172;-67
2023/05/02 02:33:46;;;;;;;10.13;9.23;;;8.80;99.90;;;;;;4994544;28;20425;-67
2023/05/02 02:36:19;;;;;;;11.03;10.03;;;8.80;99.90;;;;;;4994436;28;20283;-67
2023/05/02 02:39:01;;;;;;;10.50;9.60;;;8.80;99.90;;;;;;4994318;28;20924;-67
2023/05/02 02:41:41;;;;;;;11.53;10.43;;;8.80;99.90;;;;;;4994538;28;20423;-67
2023/05/02 02:44:21;;;;;;;11.00;9.90;;;8.80;99.90;;;;;;4994609;28;20446;-67
2023/05/02 02:47:01;;;;;;;10.90;9.90;;;8.80;99.90;;;;;;4994302;28;20449;-67
2023/05/02 02:50:13;;;;;;;11.83;10.57;;;8.70;99.90;;;;;;4993999;28;20509;-67
2023/05/02 02:52:57;;;;;;;11.27;10.17;;;8.70;99.90;;;;;;4967069;28;20427;-67
2023/05/02 02:55:35;;;;;;;11.60;10.50;;;8.80;99.90;;;;;;4994197;28;20434;-67
2023/05/02 02:58:22;;;;;;;9.57;8.63;;;8.70;99.90;;;;;;4994094;28;20446;-67
2023/05/02 03:00:49;;;;;;;9.70;8.90;;;8.70;99.90;;;;;;4994102;28;20462;-67
2023/05/02 03:03:16;;;;;;;10.13;9.10;;;8.70;99.90;;;;;;4993848;28;20431;-67
2023/05/02 03:05:43;;;;;;;11.20;10.03;;;8.70;99.90;;;;;;4993904;28;20485;-67
2023/05/02 03:08:09;;;;;;;10.43;9.37;;;8.70;99.90;;;;;;4993746;28;20442;-67
2023/05/02 03:10:34;;;;;;;11.60;10.00;;;8.80;99.90;;;;;;4993753;28;20513;-67
2023/05/02 03:13:00;;;;;;;9.87;8.87;;;8.80;99.90;;;;;;4993909;28;20526;-67
2023/05/02 03:15:50;;;;;;;11.10;10.10;;;8.90;99.90;;;;;;4993641;28;20226;-67
2023/05/02 03:18:16;;;;;;;13.40;10.20;;;9.00;99.90;;;;;;4993530;28;20183;-67
2023/05/02 03:20:42;;;;;;;11.30;10.20;;;9.10;99.90;;;;;;4993660;28;20934;-67
2023/05/02 03:23:07;;;;;;;11.10;10.10;;;9.20;99.90;;;;;;4993725;28;20492;-67
2023/05/02 03:25:33;;;;;;;10.33;9.23;;;9.20;99.90;;;;;;4993524;28;20206;-67
2023/05/02 03:27:59;;;;;;;11.87;10.77;;;9.20;99.90;;;;;;4993527;28;20180;-67
2023/05/02 03:30:24;;;;;;;10.57;9.57;;;9.20;99.90;;;;;;4993150;28;20172;-67
2023/05/02 03:32:50;;;;;;;10.93;9.93;;;9.30;99.90;;;;;;4993532;28;20172;-67
2023/05/02 03:35:16;;;;;;;10.70;9.70;;;9.30;99.90;;;;;;4993328;28;20190;-67
2023/05/02 03:37:41;;;;;;;11.53;10.40;;;9.30;99.90;;;;;;4993360;28;20187;-67
2023/05/02 03:40:07;;;;;;;10.57;9.60;;;9.30;99.90;;;;;;4993118;28;20419;-67
2023/05/02 03:42:40;;;;;;;11.17;10.27;;;9.40;99.90;;;;;;4993302;28;20543;-67
2023/05/02 03:45:06;;;;;;;9.40;8.50;;;9.40;99.90;;;;;;4993117;28;20199;-67
2023/05/02 03:47:32;;;;;;;11.00;10.00;;;9.50;99.90;;;;;;4993193;28;20796;-67
2023/05/02 03:49:58;;;;;;;10.73;9.63;;;9.60;99.90;;;;;;4992834;28;20473;-67
2023/05/02 03:52:24;;;;;;;10.67;9.70;;;9.60;99.90;;;;;;4993284;28;20207;-67
2023/05/02 03:54:50;;;;;;;10.17;9.13;;;9.60;99.90;;;;;;4993184;28;20430;-67
2023/05/02 03:57:16;;;;;;;10.50;9.10;;;9.60;99.90;;;;;;4993067;28;20974;-67
2023/05/02 03:59:44;;;;;;;10.73;9.80;;;9.60;99.90;;;;;;4992708;28;20434;-67
2023/05/02 04:02:10;;;;;;;10.87;9.87;;;9.60;99.90;;;;;;4992925;28;20171;-67
2023/05/02 04:04:36;;;;;;;10.23;9.33;;;9.50;99.90;;;;;;4992672;28;20826;-67
2023/05/02 04:07:01;;;;;;;10.27;9.33;;;9.50;99.90;;;;;;4992797;28;20536;-67
2023/05/02 04:09:27;;;;;;;10.43;9.33;;;9.50;99.90;;;;;;4992786;28;20251;-68
2023/05/02 04:11:53;;;;;;;10.20;9.40;;;9.50;99.90;;;;;;4992840;28;20164;-67
2023/05/02 04:14:18;;;;;;;11.83;10.07;;;9.60;99.90;;;;;;4992777;28;20171;-68
2023/05/02 04:16:48;;;;;;;10.60;9.60;;;9.60;99.90;;;;;;4992654;28;20211;-67
2023/05/02 04:19:13;;;;;;;10.57;9.77;;;9.70;99.90;;;;;;4992471;28;20172;-67
2023/05/02 04:21:39;;;;;;;10.47;9.53;;;9.70;99.90;;;;;;4992695;28;20427;-67
2023/05/02 04:24:04;;;;;;;12.03;10.93;;;9.80;99.90;;;;;;4992634;28;20203;-67
2023/05/02 04:26:30;;;;;;;10.50;9.40;;;9.80;99.90;;;;;;4992531;28;20188;-67
2023/05/02 04:28:56;;;;;;;10.50;9.50;;;9.90;99.90;;;;;;4992353;28;20187;-68
2023/05/02 04:31:21;;;;;;;11.00;10.00;;;9.90;99.90;;;;;;4992575;28;20274;-67
2023/05/02 04:33:47;;;;;;;11.07;10.10;;;10.00;99.90;;;;;;4992537;28;20175;-68
2023/05/02 04:36:13;;;;;;;14.73;12.30;;;10.00;99.90;;;;;;4992483;28;20211;-67
2023/05/02 04:38:39;;;;;;;13.30;10.80;;;10.00;99.90;;;;;;4992313;28;20426;-67
2023/05/02 04:41:04;;;;;;;10.70;9.83;;;10.00;99.90;;;;;;4992831;28;20168;-67
2023/05/02 04:43:30;;;;;;;11.43;10.43;;;10.00;99.90;;;;;;4992513;28;20176;-67
2023/05/02 04:45:57;;;;;;;10.00;9.17;;;10.00;99.90;;;;;;4992382;28;20828;-67
2023/05/02 04:48:24;;;;;;;10.67;9.87;;;10.00;99.90;;;;;;4992127;28;20176;-67
2023/05/02 04:50:52;;;;;;;12.00;10.90;;;10.00;99.90;;;;;;4994998;28;20414;-67
2023/05/02 04:53:17;;;;;;;10.63;9.57;;;10.10;99.90;;;;;;4996556;28;20426;-67
2023/05/02 04:55:43;;;;;;;11.57;10.50;;;10.10;99.90;;;;;;4996334;28;20786;-67
2023/05/02 04:58:09;;;;;;;11.33;10.33;;;10.30;99.90;;;;;;4996313;28;20604;-67
2023/05/02 05:00:34;;;;;;;11.07;10.07;;;10.30;99.90;;;;;;4996099;28;20583;-68
2023/05/02 05:03:00;;;;;;;11.23;10.10;;;10.40;99.90;;;;;;4996329;28;20514;-67
2023/05/02 05:05:25;;;;;;;11.90;10.80;;;10.40;99.90;;;;;;4996074;28;20203;-67
2023/05/02 05:07:51;;;;;;;11.03;10.10;;;10.30;99.90;;;;;;4996295;28;20175;-67
2023/05/02 05:10:17;;;;;;;14.30;13.00;;;10.30;99.90;;;;;;4995870;28;20649;-67
2023/05/02 05:12:42;;;;;;;13.27;11.97;;;10.30;99.90;;;;;;4996131;28;20172;-67
2023/05/02 05:15:08;;;;;;;12.30;11.10;;;10.20;99.90;;;;;;5019105;23;20217;-70
2023/05/02 05:17:35;;;;;;;11.47;10.47;;;10.20;99.90;;;;;;4995177;28;20215;-70
2023/05/02 05:20:00;;;;;;;11.40;10.40;;;10.30;99.90;;;;;;4995310;28;20788;-71
2023/05/02 05:22:26;;;;;;;11.53;10.53;;;10.40;99.90;;;;;;4996040;28;20446;-70
2023/05/02 05:24:52;;;;;;;12.50;11.40;;;10.50;99.90;;;;;;4995895;28;20216;-70
2023/05/02 05:27:18;;;;;;;12.23;11.17;;;10.60;99.90;;;;;;4977424;28;20270;-70
2023/05/02 05:29:43;;;;;;;12.53;11.33;;;10.80;99.90;;;;;;4976152;28;20562;-70
2023/05/02 05:32:09;;;;;;;11.80;10.77;;;10.90;99.90;;;;;;4976368;28;20188;-70
2023/05/02 05:34:35;;;;;;;13.20;11.90;;;11.00;99.90;;;;;;4976433;28;20173;-70
2023/05/02 05:37:00;;;;;;;11.93;10.93;;;11.10;99.90;;;;;;4975193;28;20204;-70
2023/05/02 05:39:26;;;;;;;14.50;13.03;;;11.20;99.90;;;;;;4975843;28;20423;-70
2023/05/02 05:41:52;;;;;;;12.80;11.50;;;11.30;99.90;;;;;;4976154;28;20187;-70
2023/05/02 05:44:20;;;;;;;12.97;11.77;;;11.30;99.90;;;;;;4976003;28;20196;-70
2023/05/02 05:46:46;;;;;;;12.80;11.30;;;11.30;99.90;;;;;;4975931;28;20191;-70
2023/05/02 05:49:11;;;;;;;12.83;11.73;;;11.20;99.90;;;;;;4975728;28;20420;-70
2023/05/02 05:51:36;;;;;;;11.87;10.77;;;11.20;99.90;;;;;;4975906;28;20177;-70
2023/05/02 05:54:02;;;;;;;21.00;13.47;;;11.30;99.90;;;;;;4975849;28;20264;-70
2023/05/02 05:56:28;;;;;;;13.00;11.43;;;11.30;99.90;;;;;;4975861;28;20196;-70
2023/05/02 05:58:53;;;;;;;11.40;10.43;;;11.40;99.90;;;;;;4975485;28;20184;-69
2023/05/02 06:01:19;;;;;;;11.43;10.33;;;11.50;99.90;;;;;;4975982;28;20598;-70
2023/05/02 06:03:45;;;;;;;12.40;11.20;;;11.60;99.90;;;;;;4975618;28;20224;-70
2023/05/02 06:06:10;;;;;;;12.97;11.50;;;11.60;99.90;;;;;;4975627;28;20263;-70
2023/05/02 06:08:35;;;;;;;12.83;11.73;;;11.40;99.90;;;;;;4975407;28;20172;-70
2023/05/02 06:11:01;;;;;;;11.97;10.90;;;11.30;99.90;;;;;;4975714;28;20172;-70
2023/05/02 06:13:26;;;;;;;13.13;12.03;;;11.30;99.90;;;;;;4975498;28;20517;-69
2023/05/02 06:15:52;;;;;;;13.73;12.53;;;11.50;99.90;;;;;;4975264;28;20215;-70
2023/05/02 06:18:17;;;;;;;13.97;12.67;;;11.60;99.90;;;;;;4975219;28;20223;-70
2023/05/02 06:20:43;;;;;;;13.40;12.20;;;11.80;99.90;;;;;;4975408;28;20176;-69
2023/05/02 06:23:08;;;;;;;13.17;12.00;;;11.80;99.90;;;;;;4975364;28;20216;-70
2023/05/02 06:25:37;;;;;;;14.17;12.83;;;11.90;99.90;;;;;;4975286;28;20215;-70
2023/05/02 06:28:02;;;;;;;14.30;13.07;;;12.00;99.90;;;;;;4975252;28;20171;-71
2023/05/02 06:30:27;;;;;;;15.10;13.50;;;11.80;99.90;;;;;;4974952;28;20419;-70
2023/05/02 06:32:53;;;;;;;15.73;14.23;;;11.70;99.90;;;;;;4975157;28;20172;-71
2023/05/02 06:35:18;;;;;;;14.70;13.50;;;11.70;99.90;;;;;;4975100;28;20196;-70
2023/05/02 06:37:44;;;;;;;14.90;13.50;;;11.80;99.90;;;;;;4975104;28;20176;-70
2023/05/02 06:40:10;;;;;;;14.57;13.17;;;12.00;99.90;;;;;;4966737;28;20199;-70
2023/05/02 06:42:35;;;;;;;15.47;13.87;;;12.10;99.90;;;;;;4960770;28;20177;-70
2023/05/02 06:45:01;;;;;;;15.90;14.40;;;12.30;99.90;;;;;;4955525;28;20514;-70
2023/05/02 06:47:27;;;;;;;14.67;13.27;;;12.40;99.90;;;;;;4955692;28;20675;-70
2023/05/02 06:49:53;;;;;;;16.77;15.17;;;12.50;99.90;;;;;;4979618;28;20684;-70
2023/05/02 06:52:18;;;;;;;16.33;14.73;;;12.60;99.90;;;;;;4994110;28;20422;-71
2023/05/02 06:54:44;;;;;;;15.50;14.00;;;12.60;99.90;;;;;;4993120;28;20187;-70
2023/05/02 06:57:10;;;;;;;17.40;15.60;;;12.60;99.90;;;;;;4955400;28;20571;-70
2023/05/02 06:59:35;;;;;;;17.20;15.40;;;12.70;99.90;;;;;;4955027;29;20234;-66
2023/05/02 07:02:01;;;;;;;17.03;15.27;;;12.70;99.90;;;;;;4955427;29;20188;-66
2023/05/02 07:04:26;;;;;;;19.13;17.23;;;12.80;99.90;;;;;;4955263;29;20211;-67
2023/05/02 07:06:52;;;;;;;19.80;18.00;;;12.90;99.90;;;;;;4955211;28;20223;-70
2023/05/02 07:09:18;;;;;;;21.57;19.57;;;13.00;99.90;;;;;;4955021;29;20264;-69
2023/05/02 07:11:43;;;;;;;20.60;18.70;;;13.10;99.90;;;;;;4955161;28;20195;-69
2023/05/02 07:14:09;;;;;;;22.40;18.97;;;13.10;99.90;;;;;;4954676;28;20173;-70
2023/05/02 07:16:34;;;;;;;23.90;21.70;;;12.90;99.90;;;;;;4954904;29;20209;-71
2023/05/02 07:19:00;;;;;;;22.33;20.10;;;12.90;99.90;;;;;;4954848;29;20197;-70
2023/05/02 07:21:26;;;;;;;22.60;20.50;;;12.70;99.90;;;;;;4955267;28;20661;-70
2023/05/02 07:23:51;;;;;;;22.60;20.60;;;12.80;99.90;;;;;;4954921;29;20205;-70
2023/05/02 07:26:18;;;;;;;28.17;24.30;;;12.80;99.90;;;;;;4954859;29;20188;-69
2023/05/02 07:28:44;;;;;;;25.00;22.43;;;12.80;99.90;;;;;;4954674;28;20197;-70
2023/05/02 07:31:09;;;;;;;24.87;22.47;;;12.90;99.90;;;;;;4954982;29;20416;-71
2023/05/02 07:33:35;;;;;;;22.93;20.73;;;12.90;99.90;;;;;;4954871;29;20834;-69
2023/05/02 07:36:01;;;;;;;24.37;22.07;;;13.00;99.90;;;;;;4954615;29;20193;-70
2023/05/02 07:38:27;;;;;;;23.77;21.47;;;13.10;99.90;;;;;;4954533;28;20166;-69
2023/05/02 07:40:52;;;;;;;25.30;22.70;;;13.30;99.90;;;;;;4953934;28;20434;-70
2023/05/02 07:43:18;;;;;;;24.53;22.20;;;13.40;99.90;;;;;;4975516;28;20188;-69
2023/05/02 07:45:43;;;;;;;24.77;22.23;;;13.60;99.90;;;;;;4973667;28;20192;-69
2023/05/02 07:48:09;;;;;;;25.07;22.57;;;13.60;99.90;;;;;;4986004;28;20679;-69
2023/05/02 07:50:34;;;;;;;24.37;21.83;;;13.70;99.90;;;;;;4993356;28;20179;-69
2023/05/02 07:53:00;;;;;;;25.00;22.60;;;13.80;99.90;;;;;;4993277;28;20171;-69
2023/05/02 07:55:26;;;;;;;24.40;22.00;;;13.80;99.90;;;;;;4993044;28;20183;-68
2023/05/02 07:57:52;;;;;;;25.57;22.97;;;13.90;99.90;;;;;;4993070;28;20264;-69
2023/05/02 08:00:18;;;;;;;23.77;21.47;;;13.70;99.90;;;;;;4980375;28;20178;-70
2023/05/02 08:02:45;;;;;;;26.67;24.20;;;13.90;99.90;;;;;;4973607;28;20424;-68
2023/05/02 08:05:10;;;;;;;23.93;21.57;;;13.90;99.90;;;;;;4973352;28;20204;-68
2023/05/02 08:07:36;;;;;;;28.27;25.43;;;14.00;99.90;;;;;;4973166;28;20478;-68
2023/05/02 08:10:01;;;;;;;24.50;22.00;;;14.00;99.90;;;;;;4973088;28;20179;-69
2023/05/02 08:12:27;;;;;;;27.40;24.70;;;13.90;99.90;;;;;;4973245;28;20187;-68
2023/05/02 08:14:53;;;;;;;27.07;24.47;;;13.80;99.90;;;;;;4973260;28;20255;-68
2023/05/02 08:17:18;;;;;;;26.20;23.60;;;13.70;99.90;;;;;;4971862;28;20258;-69
2023/05/02 08:19:44;;;;;;;28.77;24.33;;;13.60;99.90;;;;;;4972934;28;20523;-68
2023/05/02 08:22:09;;;;;;;27.20;24.50;;;13.60;99.90;;;;;;4973125;28;20184;-70
2023/05/02 08:24:35;;;;;;;27.43;24.73;;;13.50;99.90;;;;;;4972370;28;20203;-68
2023/05/02 08:27:02;;;;;;;27.10;24.50;;;13.50;99.90;;;;;;4972975;28;20196;-69
2023/05/02 08:29:29;;;;;;;30.43;27.33;;;13.50;99.90;;;;;;4973133;28;20547;-71
2023/05/02 08:31:54;;;;;;;27.57;24.67;;;13.60;99.90;;;;;;4973079;28;20430;-71
2023/05/02 08:34:20;;;;;;;29.37;26.50;;;13.60;99.90;;;;;;4973042;28;20419;-70
2023/05/02 08:36:46;;;;;;;28.60;25.77;;;13.40;99.90;;;;;;4973119;28;20688;-68
2023/05/02 08:39:11;;;;;;;32.00;28.83;;;13.60;99.90;;;;;;4972768;28;20664;-68
2023/05/02 08:41:37;;;;;;;28.80;26.10;;;13.80;99.90;;;;;;4972919;28;20439;-68
2023/05/02 08:44:04;;;;;;;30.40;27.40;;;14.10;99.90;;;;;;4973015;28;20204;-68
2023/05/02 08:46:30;;;;;;;28.77;25.77;;;14.40;99.90;;;;;;4972911;28;20509;-68
2023/05/02 08:49:00;;;;;;;28.23;25.50;;;14.90;99.90;;;;;;4972582;28;20423;-68
2023/05/02 08:51:28;;;;;;;27.03;24.53;;;15.50;99.90;;;;;;4972951;28;20462;-68
2023/05/02 08:53:53;;;;;;;26.27;23.80;;;15.70;99.90;;;;;;4972782;28;20855;-69
2023/05/02 08:56:19;;;;;;;27.30;24.73;;;16.20;99.90;;;;;;4971991;28;20482;-67
2023/05/02 08:58:45;;;;;;;26.00;23.63;;;16.50;99.90;;;;;;4971816;28;20239;-68
2023/05/02 09:01:22;;;;;;;26.20;23.70;;;16.80;99.90;;;;;;4973081;28;20423;-68
2023/05/02 09:03:48;;;;;;;23.93;21.43;;;17.00;99.90;;;;;;4972816;28;20664;-69
2023/05/02 09:06:15;;;;;;;23.50;21.23;;;17.20;99.90;;;;;;4972936;28;20459;-69
2023/05/02 09:08:42;;;;;;;23.37;21.07;;;17.30;99.90;;;;;;4972735;28;20583;-69
2023/05/02 09:11:09;;;;;;;23.57;21.27;;;17.40;99.90;;;;;;4973010;28;20562;-68
2023/05/02 09:13:42;;;;;;;23.40;21.30;;;17.50;99.90;;;;;;4972729;28;20826;-69
2023/05/02 09:16:13;;;;;;;25.80;23.40;;;17.50;99.90;;;;;;4969200;28;20503;-70
2023/05/02 09:18:44;;;;;;;24.67;22.17;;;17.70;99.90;;;;;;4972601;28;20925;-69
2023/05/02 09:21:12;;;;;;;23.87;21.37;;;17.70;99.90;;;;;;4972935;28;20933;-70
2023/05/02 09:23:52;;;;;;;25.77;23.27;;;17.80;99.90;;;;;;4972652;28;20474;-69
2023/05/02 09:26:23;;;;;;;24.67;22.37;;;17.90;99.90;;;;;;4972353;28;20439;-68
2023/05/02 09:28:50;;;;;;;20.67;18.97;;;18.00;99.90;;;;;;4972457;28;20422;-69
2023/05/02 09:31:18;;;;;;;22.33;20.23;;;17.90;99.90;;;;;;4972571;28;20929;-69
2023/05/02 09:33:44;;;;;;;21.47;19.37;;;17.90;99.90;;;;;;4972651;28;20447;-68
2023/05/02 09:36:15;;;;;;;19.73;17.83;;;17.90;99.90;;;;;;4973702;28;20982;-69
2023/05/02 09:38:41;;;;;;;20.70;18.80;;;17.80;99.90;;;;;;4975969;28;20434;-68
2023/05/02 09:41:08;;;;;;;19.50;17.63;;;17.80;99.90;;;;;;4976186;28;20419;-69
2023/05/02 09:43:33;;;;;;;23.63;21.20;;;17.90;99.90;;;;;;4975996;28;20423;-69
2023/05/02 09:46:00;;;;;;;23.87;21.33;;;17.90;99.90;;;;;;4975913;28;20967;-69
2023/05/02 09:48:27;;;;;;;22.40;20.30;;;17.90;99.90;;;;;;4975706;28;20275;-69
2023/05/02 09:50:53;;;;;;;24.13;21.87;;;18.10;99.90;;;;;;4975956;28;20420;-69
2023/05/02 09:53:19;;;;;;;22.33;20.33;;;18.60;99.90;;;;;;4975912;28;20420;-70
2023/05/02 09:55:44;;;;;;;21.83;19.60;;;19.00;99.90;;;;;;4975896;28;20192;-69
2023/05/02 09:58:24;;;;;;;22.37;20.43;;;19.50;99.90;;;;;;4962544;28;20210;-71
2023/05/02 10:00:51;;;;;;;21.70;19.70;;;21.10;99.90;;;;;;4956409;28;20208;-69
2023/05/02 10:03:17;;;;;;;21.53;19.70;;;22.30;99.90;;;;;;4956617;28;20428;-69
2023/05/02 10:05:44;;;;;;;19.73;18.03;;;23.30;99.50;;;;;;4956227;28;20464;-69
2023/05/02 10:08:12;;;;;;;21.50;19.90;;;23.60;97.40;;;;;;4968062;28;20439;-70
2023/05/02 10:10:39;;;;;;;22.70;19.40;;;23.20;96.50;;;;;;4975204;28;20458;-66
2023/05/02 10:13:06;;;;;;;21.60;19.80;;;22.80;97.10;;;;;;4975656;28;20787;-66
2023/05/02 10:15:33;;;;;;;22.00;20.20;;;22.00;99.90;;;;;;4975270;28;20949;-66
2023/05/02 10:18:02;;;;;;;23.20;21.20;;;21.40;99.90;;;;;;4975466;28;20975;-67
2023/05/02 10:20:36;;;;;;;25.23;23.00;;;21.20;99.90;;;;;;4971232;28;20518;-67
2023/05/02 10:23:03;;;;;;;22.60;20.70;;;20.80;99.90;;;;;;4975375;28;20498;-66
2023/05/02 10:25:29;;;;;;;19.70;18.17;;;21.00;99.90;;;;;;4975180;28;20498;-65
2023/05/02 10:27:58;;;;;;;21.23;19.27;;;21.00;99.90;;;;;;4975300;28;20928;-66
2023/05/02 10:30:25;;;;;;;21.93;20.07;;;21.20;99.90;;;;;;4975064;28;20171;-69
2023/05/02 10:32:54;;;;;;;18.53;17.00;;;22.30;99.10;;;;;;4972118;28;20931;-68
2023/05/02 10:35:21;;;;;;;18.80;17.17;;;23.40;95.80;;;;;;4964697;28;20495;-69
2023/05/02 10:37:48;;;;;;;21.80;19.53;;;23.50;92.80;;;;;;4959738;28;20435;-70
2023/05/02 10:40:14;;;;;;;18.20;16.50;;;23.20;93.00;;;;;;4955775;28;20452;-69
2023/05/02 10:42:44;;;;;;;19.67;18.07;;;23.50;92.80;;;;;;4956031;28;20428;-68
2023/05/02 10:45:30;;;;;;;19.87;18.20;;;25.00;89.30;;;;;;4955614;28;20460;-69
2023/05/02 10:48:15;;;;;;;11.60;10.70;;;26.60;79.10;;;;;;4954847;28;20449;-69
2023/05/02 10:50:52;;;;;;;12.90;11.70;;;27.90;70.80;;;;;;4955562;28;20424;-68
2023/05/02 10:53:30;;;;;;;15.40;13.90;;;28.40;60.30;;;;;;4955549;28;20466;-69
2023/05/02 10:56:14;;;;;;;16.30;14.90;;;26.90;59.30;;;;;;4955577;28;20866;-69
2023/05/02 10:58:41;;;;;;;14.23;13.23;;;25.40;63.30;;;;;;4962392;28;20459;-69
2023/05/02 11:01:25;;;;;;;12.47;11.57;;;25.10;65.60;;;;;;4975418;28;20517;-69
2023/05/02 11:03:56;;;;;;;13.13;12.03;;;26.30;61.40;;;;;;4978804;28;20464;-69
2023/05/02 11:06:22;;;;;;;15.33;13.77;;;28.10;57.50;;;;;;4993809;28;20442;-69
2023/05/02 11:08:48;;;;;;;14.77;13.60;;;29.60;55.00;;;;;;4993693;28;20423;-69
2023/05/02 11:11:42;;;;;;;13.70;12.70;;;29.60;52.30;;;;;;4993825;28;20417;-71
2023/05/02 11:14:31;;;;;;;17.40;16.00;;;27.10;53.60;;;;;;4993876;28;20174;-72
2023/05/02 11:16:59;;;;;;;17.50;16.10;;;24.70;56.30;;;;;;4981265;28;20466;-71
2023/05/02 11:19:25;;;;;;;16.47;15.07;;;22.40;64.50;;;;;;4960782;28;20447;-70
2023/05/02 11:21:56;;;;;;;17.00;14.80;;;22.20;68.70;;;;;;4954616;28;20515;-69
2023/05/02 11:24:41;;;;;;;18.00;16.00;;;22.10;69.40;;;;;;4954908;29;20456;-71
2023/05/02 11:27:29;;;;;;;18.83;17.10;;;21.50;73.90;;;;;;4954701;28;20432;-70
2023/05/02 11:29:54;;;;;;;19.07;17.33;;;21.10;80.30;;;;;;4954315;29;20412;-68
2023/05/02 11:32:21;;;;;;;16.33;15.00;;;20.60;80.10;;;;;;4954643;29;20782;-70
2023/05/02 11:34:49;;;;;;;19.07;17.50;;;20.30;85.60;;;;;;4954843;29;20303;-69
2023/05/02 11:37:15;;;;;;;17.20;15.70;;;20.10;85.50;;;;;;4954467;28;20954;-70
2023/05/02 11:39:41;;;;;;;16.80;15.37;;;19.90;90.20;;;;;;4954266;29;20424;-68
2023/05/02 11:42:07;;;;;;;17.43;15.83;;;19.80;90.50;;;;;;4954624;28;20647;-69
2023/05/02 11:44:32;;;;;;;19.83;18.23;;;19.50;92.80;;;;;;4954346;29;20488;-69
2023/05/02 11:46:59;;;;;;;17.97;16.30;;;19.70;93.20;;;;;;4954255;28;20678;-69
2023/05/02 11:49:25;;;;;;;18.23;16.77;;;21.00;90.30;;;;;;4954183;28;20512;-69
2023/05/02 11:51:51;;;;;;;17.27;15.80;;;23.30;81.30;;;;;;4954536;29;20427;-69
2023/05/02 11:54:20;;;;;;;16.17;14.80;;;26.50;67.80;;;;;;4954413;29;20794;-69
2023/05/02 11:56:47;;;;;;;17.67;16.13;;;29.00;58.20;;;;;;4954300;28;20189;-69
2023/05/02 11:59:12;;;;;;;17.17;15.67;;;29.10;54.90;;;;;;4953945;28;20428;-69
2023/05/02 12:01:47;;;;;;;17.57;16.07;;;28.90;53.90;;;;;;4954258;29;20428;-69
2023/05/02 12:04:12;;;;;;;17.87;16.47;;;28.20;54.10;;;;;;4954155;28;20243;-69
2023/05/02 12:06:38;;;;;;;18.67;16.93;;;28.80;52.00;;;;;;4954147;28;20440;-69
2023/05/02 12:09:08;;;;;;;17.73;16.33;;;29.20;50.80;;;;;;4954032;29;20693;-69
2023/05/02 12:11:34;;;;;;;15.97;14.67;;;29.10;51.30;;;;;;4954227;28;20169;-69
2023/05/02 12:14:02;;;;;;;19.50;18.10;;;30.80;50.20;;;;;;4954016;28;20503;-69
2023/05/02 12:16:28;;;;;;;21.93;19.93;;;29.90;49.90;;;;;;4953827;28;20476;-69
2023/05/02 12:18:55;;;;;;;21.70;20.00;;;27.40;51.70;;;;;;4953695;29;20424;-69
2023/05/02 12:21:21;;;;;;;19.67;17.97;;;26.10;53.40;;;;;;4954274;29;20265;-69
2023/05/02 12:23:46;;;;;;;20.03;18.30;;;24.70;55.10;;;;;;4953880;29;20512;-69
2023/05/02 12:26:20;;;;;;;20.07;18.33;;;23.40;57.60;;;;;;4953883;28;20212;-69
2023/05/02 12:28:50;;;;;;;21.50;19.80;;;22.20;59.20;;;;;;4953624;28;20177;-69
2023/05/02 12:31:16;;;;;;;24.57;22.10;;;21.70;65.40;;;;;;4953979;28;20424;-69
2023/05/02 12:33:42;;;;;;;22.07;20.17;;;21.40;67.60;;;;;;4953814;28;20802;-69
2023/05/02 12:36:09;;;;;;;23.97;21.87;;;21.60;69.30;;;;;;4953796;28;20196;-69
2023/05/02 12:38:35;;;;;;;24.27;21.83;;;22.20;69.50;;;;;;4953577;29;20417;-70
2023/05/02 12:41:00;;;;;;;22.67;20.57;;;24.30;65.50;;;;;;4953704;29;20785;-70